Aquila — WDB6816 — position and weather

sailwx.info

Track history (hours):
 
Tides and Currents Weather Stations Pressure Air Temp Water Temp Dewpoint Dewpoint Depression Visibility Wind Speed Wind Dir Waves Ship Positions

Aquila

Owner: van Dyke, John W, Darien, CT. More information available from US FCC via Universal Licensing System and Coast Guard Vessel Documentation Center.

Last reported at 2017-Sep-18 14:52 UTC. Time now 2017-Sep-21 10:45 UTC.
Position N 41°19' W 072°21'.

Type: Sailing vessel. MMSI: 367599460.

Date/timePositionNaut miles runAvg speedWind from/ knotsBaromVisibWave heightAir tempDewpointWater temp
2017-Sep-18 14:52N 41°19' W 072°21'2 4.2
2017-Sep-18 14:29N 41°17' W 072°21'  
2017-Sep-11 14:40N 42°17' W 070°30'2 6.2
2017-Sep-11 14:25N 42°18' W 070°31'3 6.2
2017-Sep-11 14:00N 42°20' W 070°33'3 6.2
2017-Sep-11 13:30N 42°22' W 070°36'3 6.2
2017-Sep-11 12:59N 42°25' W 070°38'3 6.1
2017-Sep-11 12:30N 42°27' W 070°41'3 6.3
2017-Sep-11 11:59N 42°30' W 070°44'3 6.2
2017-Sep-11 11:30N 42°32' W 070°46'2 0.1
2017-Sep-10 20:01N 42°33' W 070°48'0 0.4
2017-Sep-10 20:00N 42°33' W 070°48'  
Track history (hours):
 
Tides and Currents Weather Stations Pressure Air Temp Water Temp Dewpoint Dewpoint Depression Visibility Wind Speed Wind Dir Waves Ship Positions

Aquila

Owner: van Dyke, John W, Darien, CT. More information available from US FCC via Universal Licensing System and Coast Guard Vessel Documentation Center.

Last reported at 2017-Sep-18 14:52 UTC. Time now 2017-Sep-21 10:45 UTC.
Position N 41°19' W 072°21'.

Type: Sailing vessel. MMSI: 367599460.

Date/timePositionNaut miles runAvg speedWind from/ knotsBaromVisibWave heightAir tempDewpointWater temp
2017-Sep-18 14:52N 41°19' W 072°21'2 4.2
2017-Sep-18 14:29N 41°17' W 072°21'  
2017-Sep-11 14:40N 42°17' W 070°30'2 6.2
2017-Sep-11 14:25N 42°18' W 070°31'3 6.2
2017-Sep-11 14:00N 42°20' W 070°33'3 6.2
2017-Sep-11 13:30N 42°22' W 070°36'3 6.2
2017-Sep-11 12:59N 42°25' W 070°38'3 6.1
2017-Sep-11 12:30N 42°27' W 070°41'3 6.3
2017-Sep-11 11:59N 42°30' W 070°44'3 6.2
2017-Sep-11 11:30N 42°32' W 070°46'2 0.1
2017-Sep-10 20:01N 42°33' W 070°48'0 0.4
2017-Sep-10 20:00N 42°33' W 070°48'  

Dump ship's entire track history